Wyoming, Delaware
Current Conditions -  °F | °C
As of 6:58 PM on Friday 31 Oct 2014 (Local Time) from KDOV Reporting Station
Overcast Overcast  
Wind Chill: 50°   Ceiling: 4800
Heat Index: 50°   Visibility: 10mi
Dew Point: 39°   Wind: 12mph
Humidity: 66%   Direction: 360°N
Pressure: 29.84"   Gusts: NA
Location:  39.0852°N, 75.6325°W
Report Text: KDOV 312258Z AUTO 36010KT 10SM OVC048 10/04 A2984 RMK AO2 SLP108 T01020040
Loading
Personal Weather Stations






























Interactive Weather Map
Tropical Storm Tracking
New forecast layout! Learn more

10-Day Weather Forecast

Advertisements
Track Severe Weather on mobile